Fredrik Berge

Olheiro-Chefe - Viking
19 Ago 2027
Quinta-feira
Processo

Personalidade

Adaptabilidade (13) Ambição (12) Controvérsia (7) Lealdade (17) Pressão (6) Profissionalismo (15) Espírito Esportivo (19) Temperamento (3)

Perfil

Estilo de Treinamento Democrático
Licença Nacional B
Determinação 7
Gestão de Pessoas 4
Motivação 8
Disciplina 4
Satisfação no Trabalho
79%
Fadiga
0%
Função Olheiro-Chefe
Salário 75.6K p/s
Contrato 14.03.2030

Desempenho

Comportamento Bom
Eficácia do Treinamento
36%
Desenvolvimento do Jogador
40%
Prevenção de Lesões
60%
Implementação Tática
55%

Eventos Recentes

Participou de uma reunião de recrutamento agora
Recomendou um alvo de transferência agora
Recomendou um alvo de transferência agora
Recomendou um alvo de transferência 7d atrás
Recomendou um alvo de transferência 7d atrás
Participou de uma reunião de recrutamento 7d atrás
Participou de uma reunião de recrutamento 7d atrás
Avaliou um jogador 7d atrás

Monitorando agora

116
Jogador Clube Status Habilidade Confiança Observado Última observação Último voto
Sascha Britschgi Padova Ativo 134 / 128 40% 4 10.08.2027 -
Freddy Murillo Valencia Ativo 107 / 110 40% 1 10.08.2027 -
Zane Albarus Cambridge United Ativo 105 / 115 40% 4 03.08.2027 -
Daniel Dennis Ikorodu City Ativo 104 / 92 40% 2 03.08.2027 Mais informações
Christos Mouzakitis Hull City Rejeitado 133 / 138 80% 10 02.08.2027 Rejeitar
Gonçalo Oliveira Benfica Rejeitado 124 / 109 67% 4 02.08.2027 Rejeitar
Joel Ezra Enyimba Ativo 72 / 115 40% 2 27.07.2027 -
Bradley Phiri LNZ Ativo 112 / 112 66% 1 16.07.2027 Aprovar
Martim Cunha Porto Ativo 113 / 128 40% 4 14.07.2027 Observar
Riley Owen Trento Ativo 90 / 124 40% 5 13.07.2027 -
Andrea Bertoncini Carpi Ativo 109 / 104 40% 1 13.07.2027 -
Christ Inao Oulaï Fiorentina Ativo 156 / 143 40% 1 09.07.2027 -
Joel McGregor Swindon Town Ativo 78 / 95 40% 3 04.07.2027 -
Daniel Costa Sporting CP Ativo 77 / 92 40% 3 04.07.2027 -
Samuel Lucero Defensa y Justicia Ativo 109 / 121 40% 1 03.07.2027 -
Bernardo Lima Porto Ativo 108 / 125 40% 2 30.06.2027 -
Caleb Yirenkyi Coventry City Ativo 119 / 135 40% 6 29.06.2027 -
Rivaldo Grobler Free State Stars Ativo 99 / 91 40% 1 29.06.2027 -
Matías Gómez Granada Ativo 110 / 134 40% 4 28.06.2027 -
Alan Morinigo Olimpia Ativo 116 / 115 40% 2 27.06.2027 -
Josh Smith Accrington Stanley Ativo 75 / 78 40% 2 26.06.2027 -
Tiago Freitas Benfica Ativo 97 / 113 40% 3 26.06.2027 -
Eduardo Felicíssimo Sporting CP Ativo 123 / 128 40% 3 25.06.2027 -
Ernie Weaver AFC Wimbledon Ativo 130 / 131 40% 6 23.06.2027 -
Finley McAllister Grimsby Town Ativo 75 / 101 40% 2 22.06.2027 -
Jaydee Canvot Crystal Palace Ativo 120 / 150 40% 2 21.06.2027 -
Keagan Tau Ajax Cape Town Ativo 95 / 88 40% 2 12.06.2027 -
Davide Bartesaghi AC Milan Ativo 116 / 142 40% 2 10.06.2027 -
Johan Manzambi Newcastle United Ativo 122 / 161 40% 2 07.06.2027 -
Yussif Saidu Zaragoza Ativo 119 / 136 40% 1 06.06.2027 -
Afonso Assis Moreirense Ativo 108 / 125 40% 7 05.06.2027 -
Jofre Torrents Ajax Ativo 120 / 142 40% 6 02.06.2027 -
Samuele di Benedetto Bari Ativo 118 / 124 40% 2 28.05.2027 -
Kazunari Kita Real Sociedad Ativo 92 / 93 40% 2 28.05.2027 -
Adam Bakoune Ospitaletto Ativo 91 / 105 40% 2 26.05.2027 -
Zaïd BafdilI Sporting CP Ativo 101 / 111 40% 2 24.05.2027 -
Mpho Khethang AS Police Ativo 86 / 69 40% 1 24.05.2027 -
Josh King Chelsea Ativo 150 / 157 40% 2 17.05.2027 -
Leonardo Mendicino Bari Ativo 96 / 111 40% 2 17.05.2027 -
Juan Giménez Celta Ativo 107 / 128 40% 4 13.05.2027 -
Daniel Kelly Oxford United Ativo 102 / 119 40% 2 10.05.2027 -
Percy Jali Free State Stars Ativo 114 / 109 40% 3 09.05.2027 -
Ibrahim Maza Bayer Leverkusen Ativo 134 / 138 40% 2 09.05.2027 -
Dylan Lawlor Cardiff City Ativo 98 / 135 40% 3 05.05.2027 -
Jan Bürger Gillingham Ativo 92 / 106 40% 2 04.05.2027 -
Finn Jeltsch VfB Stuttgart Ativo 145 / 135 40% 2 30.04.2027 -
Hlompho Lorch Ajax Cape Town Ativo 100 / 87 40% 1 27.04.2027 -
Ezra Mayers West Ham United Ativo 106 / 110 40% 1 25.04.2027 -
Leandro Martins Benfica Ativo 109 / 82 40% 1 22.04.2027 -
Cathal Heffernan Harrogate Town Ativo 82 / 102 40% 2 16.04.2027 -
Edwin Asamoah Berekum Chelsea Ativo 72 / 70 40% 1 30.03.2027 -
Darryl Bakola Padova Ativo 115 / 125 40% 1 26.03.2027 -
Dmitry Pestryakov Dinamo Moscow Ativo 104 / 119 40% 1 25.03.2027 -
Camillo Tavernelli Arezzo Ativo 121 / 126 40% 1 08.03.2027 -
Jakob Dunsby Sandefjord Ativo 127 / 113 48% 1 01.03.2027 -
Denis Rubanov Dinamo Stavropol Ativo 93 / 93 40% 1 03.02.2027 -
Khama Dolly Utrecht Ativo 123 / 124 67% 1 01.02.2027 Aprovar
Mateus Mané Manchester United Ativo 124 / 152 40% 2 30.01.2027 -
Víctor Guzmán Sporting CP Ativo 88 / 96 40% 3 30.01.2027 -
Arthur Maron São Paulo Ativo 99 / 112 40% 2 24.01.2027 -
Ben Ahmed Kohili Paradou Ativo 106 / 96 40% 1 21.01.2027 -
Daniel Braut Tromso Ativo 109 / 100 40% 4 19.01.2027 -
Dylan Cabral Arsenal Ativo 94 / 113 40% 1 17.01.2027 -
Richard Ferrington Stabaek Ativo 91 / 98 40% 2 14.01.2027 -
Elion Krosa Odd Ativo 95 / 92 40% 3 13.01.2027 Rejeitar
Miloš Jovičić Zabbar St. Patrick Ativo 70 / 107 40% 2 09.01.2027 -
Mathis Jangeal Famalicao Ativo 117 / 100 40% 1 31.12.2026 -
Hazeem Bakre Crawley Town Ativo 64 / 93 40% 1 24.12.2026 -
Gustavo Ferreira Benfica Ativo 95 / 101 40% 1 22.12.2026 -
Krešimir Radoš HNK Gorica Ativo 107 / 112 40% 2 21.12.2026 -
Williams Yikat Aigle Royal de Moungo Ativo 106 / 72 40% 1 21.12.2026 -
Lwanda Mbanjwa Maritzburg United Ativo 96 / 110 40% 1 20.12.2026 -
Chineme Chinonso Ikorodu City Ativo 74 / 98 40% 2 19.12.2026 -
Darlvin Yeboah Bechem United Ativo 67 / 76 40% 1 19.12.2026 -
Sidiki Chérif Coventry City Ativo 115 / 120 40% 2 18.12.2026 -
Jalal Abdullai Molde Ativo 107 / 119 40% 6 17.12.2026 -
Leon Grgić Sturm Graz Ativo 103 / 130 40% 3 17.12.2026 -
Alexei Dominguez Pachuca Ativo 96 / 120 40% 4 16.12.2026 -
Cameron Gardner Grimsby Town Ativo 95 / 104 40% 1 14.12.2026 -
Yojan Garcés America de Cali Ativo 112 / 116 40% 1 10.12.2026 -
Andrey Domotsev Mashuk Ativo 91 / 91 40% 1 10.12.2026 -
Miguel Marulanda Envigado Ativo 95 / 107 40% 1 09.12.2026 -
David Kalokoh Ajax Ativo 95 / 103 40% 5 07.12.2026 -
Blerton Isufi Molde Ativo 94 / 102 40% 2 04.12.2026 -
Agustín Fernández NK Zavrc Ativo 91 / 103 40% 3 25.11.2026 -
Tomás Romero Unión de Santa Fe Ativo 99 / 94 40% 2 23.11.2026 -
Thulani Erasmus Platinum Stars Ativo 80 / 107 40% 2 21.11.2026 -
Kaio Eduardo Thun Ativo 119 / 115 40% 1 21.11.2026 -
Nikita Kuzin Kaluga Ativo 82 / 84 40% 2 14.11.2026 -
Fletcher Holman Swindon Town Ativo 84 / 110 40% 4 13.11.2026 -
Alexander Gurendal IK Start Ativo 85 / 109 40% 2 12.11.2026 -
Hassan Beja AFC Leopards Ativo 94 / 80 40% 3 06.11.2026 -
Jovan Milošević Braga Ativo 127 / 104 40% 1 06.11.2026 -
Petcho Camara Haugesund Ativo 100 / 83 40% 3 02.11.2026 -
Alasana Yirajang AS Trencin Ativo 113 / 126 40% 4 02.11.2026 -
Jonás Luna Santa Clara Ativo 133 / 109 40% 4 01.11.2026 -
Luke Baartman ES Mostaganem Ativo 110 / 117 40% 1 26.10.2026 -
Senny Mayulu Paris Saint-Germain Ativo 138 / 133 40% 1 24.10.2026 -
Nikolay Zlatev Cherno More Ativo 99 / 114 40% 3 14.10.2026 -
Lévy Néne FC Nordsjaelland Ativo 117 / 133 40% 1 12.10.2026 -
Csanád Vilmos Dénes Debrecen Ativo 104 / 111 40% 1 07.10.2026 -
Alan Cisnero Shukura Ativo 101 / 94 40% 1 30.09.2026 -
Ignacio Giacinti Patronato Ativo 98 / 101 40% 1 30.09.2026 -
Román Albornoz Temperley Ativo 98 / 84 40% 2 28.09.2026 -
Sebastian Holm Mathisen Sandefjord Ativo 93 / 120 40% 2 27.09.2026 -
Joseph Abah Remo Stars Ativo 75 / 99 40% 2 21.09.2026 -
Tobías Ganduglia Independiente Rivadavia Ativo 77 / 101 40% 1 17.09.2026 -
Alan Coria Defensa y Justicia Ativo 104 / 96 40% 2 15.09.2026 -
Branco Ripoll Aldosivi Ativo 79 / 88 40% 1 14.09.2026 -
Bruno Hernández Cerro Largo Ativo 84 / 93 40% 1 05.09.2026 -
Jere Vrcić Birkirkara Ativo 75 / 81 40% 1 01.09.2026 -
Felix Kutsche Eriksen IK Start Ativo 88 / 109 40% 1 28.08.2026 -
Lorenzo Orzán Colón Ativo 86 / 104 40% 1 27.08.2026 -
Shane Nti Brighton Ativo 79 / 94 40% 1 27.08.2026 -
Aaron Centurión Vélez Ativo 82 / 98 40% 1 24.08.2026 -
Vinnie Hayward Aston Villa Ativo 93 / 82 40% 1 18.08.2026 -